createdAt,value
2022-08-22T00:00:25.084Z,150868.66
2022-08-22T00:01:53.741Z,150890.66
2022-08-22T00:02:42.776Z,151336.50
2022-08-22T00:03:07.175Z,151301.03
2022-08-22T00:03:11.263Z,151127.56
2022-08-22T00:04:34.399Z,150783.25
2022-08-22T00:05:43.628Z,150871.09
2022-08-22T00:07:22.978Z,150876.03
2022-08-22T00:08:30.453Z,150839.38
2022-08-22T00:09:46.059Z,150833.28
2022-08-22T00:11:25.627Z,150840.59
2022-08-22T00:12:36.365Z,150840.59
2022-08-22T00:13:41.510Z,150877.25
2022-08-22T00:14:58.577Z,150861.34
2022-08-22T00:16:16.349Z,150855.25
2022-08-22T00:17:50.540Z,150872.31
2022-08-22T00:19:16.496Z,150880.91
2022-08-22T00:20:41.837Z,150861.34
2022-08-22T00:21:49.816Z,150868.66
2022-08-22T00:23:13.169Z,150895.53
2022-08-22T00:24:35.886Z,150874.75
2022-08-22T00:25:56.851Z,150795.44
2022-08-22T00:27:04.404Z,150863.78
2022-08-22T00:28:15.499Z,150788.13
2022-08-22T00:29:23.952Z,150846.72
2022-08-22T00:30:26.626Z,150795.44
2022-08-22T00:31:40.607Z,150866.22
2022-08-22T00:32:42.744Z,150788.13
2022-08-22T00:33:53.827Z,150858.91
2022-08-22T00:35:10.625Z,150856.47
2022-08-22T00:36:23.265Z,150834.50
2022-08-22T00:37:41.792Z,150847.94
2022-08-22T00:39:02.841Z,150835.72
2022-08-22T00:40:42.434Z,150856.47
2022-08-22T00:41:44.558Z,150769.81
2022-08-22T00:43:05.026Z,150764.94
2022-08-22T00:44:17.334Z,150854.03
2022-08-22T00:45:50.529Z,150869.88
2022-08-22T00:47:14.202Z,150851.59
2022-08-22T00:48:28.098Z,150849.16
2022-08-22T00:49:56.278Z,150862.56
2022-08-22T00:51:16.644Z,150890.66
2022-08-22T00:52:30.365Z,150796.66
2022-08-22T00:54:17.536Z,150890.66
2022-08-22T00:55:50.705Z,150883.34
2022-08-22T00:57:13.450Z,150879.69
2022-08-22T00:58:23.839Z,150883.34
2022-08-22T00:59:53.307Z,150867.44
2022-08-22T01:01:03.241Z,150858.91
2022-08-22T01:02:23.939Z,150778.41
2022-08-22T01:03:52.850Z,150780.81
2022-08-22T01:05:42.049Z,150856.47
2022-08-22T01:06:51.601Z,150772.25
2022-08-22T01:08:12.409Z,150771.03
2022-08-22T01:09:14.595Z,150758.84
2022-08-22T01:10:47.562Z,150839.38
2022-08-22T01:12:11.859Z,150824.75
2022-08-22T01:13:23.459Z,150827.19
2022-08-22T01:14:44.386Z,150733.19
2022-08-22T01:15:47.859Z,150827.19
2022-08-22T01:17:00.654Z,150824.75
2022-08-22T01:18:05.493Z,150742.91
2022-08-22T01:19:39.970Z,150821.09
2022-08-22T01:21:03.644Z,150806.41
2022-08-22T01:22:23.930Z,150821.09
2022-08-22T01:24:23.086Z,150817.44
2022-08-22T01:25:32.348Z,150724.66
2022-08-22T01:27:10.646Z,150818.66
2022-08-22T01:28:47.152Z,150819.88
2022-08-22T01:30:12.250Z,150797.88
2022-08-22T01:31:23.718Z,150705.09
2022-08-22T01:32:31.403Z,150766.16
2022-08-22T01:34:04.724Z,150790.56
2022-08-22T01:35:28.283Z,150773.47
2022-08-22T01:36:45.523Z,150771.03
2022-08-22T01:37:56.777Z,150731.94
2022-08-22T01:39:20.559Z,150727.09
2022-08-22T01:40:56.843Z,150746.66
2022-08-22T01:42:04.994Z,150721.00
2022-08-22T01:43:16.631Z,150719.78
2022-08-22T01:44:22.103Z,150719.78
2022-08-22T01:45:42.298Z,150733.19
2022-08-22T01:47:02.587Z,150727.09
2022-08-22T01:48:31.339Z,150716.13
2022-08-22T01:49:33.462Z,150639.22
2022-08-22T01:50:38.397Z,150695.38
2022-08-22T01:51:50.399Z,150705.09
2022-08-22T01:52:59.763Z,150721.00
2022-08-22T01:54:21.941Z,150717.34
2022-08-22T01:55:26.737Z,150631.94
2022-08-22T01:56:36.179Z,150679.53
2022-08-22T01:57:57.405Z,150707.53
2022-08-22T01:59:11.174Z,150678.25
2022-08-22T02:00:18.144Z,150672.16
2022-08-22T02:01:44.251Z,150681.97
2022-08-22T02:03:14.812Z,150700.22
2022-08-22T02:04:36.044Z,150685.63
2022-08-22T02:05:54.275Z,150661.19
2022-08-22T02:07:06.570Z,150655.13
2022-08-22T02:08:46.702Z,150675.81
2022-08-22T02:10:23.566Z,150663.63
2022-08-22T02:11:58.851Z,150672.16
2022-08-22T02:13:23.199Z,150670.94
2022-08-22T02:14:32.703Z,150673.38
2022-08-22T02:15:40.893Z,150656.34
2022-08-22T02:16:48.245Z,150636.78
2022-08-22T02:18:05.335Z,150553.84
2022-08-22T02:19:16.438Z,150627.06
2022-08-22T02:20:28.886Z,150622.19
2022-08-22T02:21:42.969Z,150630.69
2022-08-22T02:23:00.813Z,150620.97
2022-08-22T02:24:16.218Z,150591.69
2022-08-22T02:25:25.665Z,150600.22
2022-08-22T02:26:51.354Z,150527.00
2022-08-22T02:28:06.460Z,150600.22
2022-08-22T02:29:23.207Z,150612.38
2022-08-22T02:30:42.173Z,150614.88
2022-08-22T02:31:44.372Z,150522.13
2022-08-22T02:32:54.227Z,150600.22
2022-08-22T02:33:59.403Z,150574.59
2022-08-22T02:35:14.303Z,150619.75
2022-08-22T02:36:30.224Z,150585.59
2022-08-22T02:37:55.363Z,150583.16
2022-08-22T02:39:21.427Z,150599.00
2022-08-22T02:40:34.276Z,150566.06
2022-08-22T02:41:55.528Z,150573.38
2022-08-22T02:43:36.000Z,150553.84
2022-08-22T02:45:10.482Z,150539.19
2022-08-22T02:46:19.283Z,150502.59
2022-08-22T02:47:32.390Z,150497.72
2022-08-22T02:48:52.546Z,150488.00
2022-08-22T02:50:38.932Z,150506.25
2022-08-22T02:51:59.602Z,150412.34
2022-08-22T02:53:14.648Z,150469.69
2022-08-22T02:54:35.610Z,150388.00
2022-08-22T02:55:48.168Z,150488.00
2022-08-22T02:57:16.664Z,150461.16
2022-08-22T02:58:44.105Z,150431.88
2022-08-22T03:00:30.647Z,150446.50
2022-08-22T03:01:55.973Z,150434.31
2022-08-22T03:03:07.263Z,150434.31
2022-08-22T03:04:32.699Z,150429.44
2022-08-22T03:05:37.664Z,150422.16
2022-08-22T03:06:43.619Z,150406.28
2022-08-22T03:08:00.310Z,150422.16
2022-08-22T03:09:15.222Z,150363.56
2022-08-22T03:10:26.394Z,150435.53
2022-08-22T03:11:32.170Z,150422.16
2022-08-22T03:12:56.971Z,150479.41
2022-08-22T03:14:11.857Z,150383.16
2022-08-22T03:15:26.088Z,150483.13
2022-08-22T03:16:59.983Z,150473.34
2022-08-22T03:18:28.075Z,150484.34
2022-08-22T03:19:46.214Z,150463.59
2022-08-22T03:21:16.187Z,150514.81
2022-08-22T03:22:24.481Z,150424.59
2022-08-22T03:24:00.508Z,150525.78
2022-08-22T03:25:10.173Z,150507.47
2022-08-22T03:26:18.171Z,150431.88
2022-08-22T03:27:33.252Z,150512.34
2022-08-22T03:28:52.619Z,150517.25
2022-08-22T03:30:24.906Z,150514.81
2022-08-22T03:31:29.952Z,150489.19
2022-08-22T03:32:59.107Z,150533.09
2022-08-22T03:34:25.130Z,150529.44
2022-08-22T03:35:27.262Z,150424.59
2022-08-22T03:36:31.471Z,150453.84
2022-08-22T03:37:37.633Z,150478.19
2022-08-22T03:38:48.853Z,150475.75
2022-08-22T03:39:51.143Z,150392.88
2022-08-22T03:41:27.200Z,150490.41
2022-08-22T03:42:35.248Z,150464.81
2022-08-22T03:44:01.981Z,150478.19
2022-08-22T03:45:07.184Z,150385.56
2022-08-22T03:46:22.820Z,150464.81
2022-08-22T03:47:47.712Z,150466.03
2022-08-22T03:49:37.962Z,150468.47
2022-08-22T03:51:17.781Z,150470.88
2022-08-22T03:53:06.025Z,150461.16
2022-08-22T03:54:23.249Z,150444.06
2022-08-22T03:55:31.121Z,150439.19
2022-08-22T03:56:37.759Z,150356.28
2022-08-22T03:58:04.481Z,150439.19
2022-08-22T03:59:31.279Z,150442.84
2022-08-22T04:00:52.940Z,150331.88
2022-08-22T04:02:01.472Z,150405.06
2022-08-22T04:03:24.024Z,150413.56
2022-08-22T04:04:47.417Z,150422.16
2022-08-22T04:06:06.113Z,150405.06
2022-08-22T04:07:32.059Z,150397.75
2022-08-22T04:09:10.023Z,150417.28
2022-08-22T04:10:31.132Z,150425.81
2022-08-22T04:12:04.560Z,150414.78
2022-08-22T04:13:28.589Z,150439.19
2022-08-22T04:15:04.355Z,150429.44
2022-08-22T04:16:34.544Z,150447.72
2022-08-22T04:17:54.915Z,150448.97
2022-08-22T04:19:25.002Z,150444.06
2022-08-22T04:20:50.553Z,150446.50
2022-08-22T04:22:18.135Z,150456.28
2022-08-22T04:23:39.654Z,150439.19
2022-08-22T04:24:52.104Z,150436.75
2022-08-22T04:26:10.757Z,150435.53
2022-08-22T04:27:24.133Z,150446.50
2022-08-22T04:28:37.813Z,150440.41
2022-08-22T04:30:05.948Z,150468.47
2022-08-22T04:31:14.411Z,150464.81
2022-08-22T04:32:36.779Z,150485.56
2022-08-22T04:33:52.558Z,150485.56
2022-08-22T04:35:02.245Z,150483.13
2022-08-22T04:36:26.449Z,150520.91
2022-08-22T04:37:29.105Z,150441.63
2022-08-22T04:38:55.340Z,150519.69
2022-08-22T04:40:07.999Z,150529.44
2022-08-22T04:41:51.983Z,150545.25
2022-08-22T04:43:19.715Z,150555.06
2022-08-22T04:44:57.672Z,150548.97
2022-08-22T04:46:37.025Z,150550.19
2022-08-22T04:47:54.026Z,150529.44
2022-08-22T04:49:02.681Z,150468.47
2022-08-22T04:50:22.182Z,150547.75
2022-08-22T04:51:33.801Z,150541.63
2022-08-22T04:53:11.219Z,150558.72
2022-08-22T04:54:46.588Z,150588.03
2022-08-22T04:56:25.268Z,150595.34
2022-08-22T04:57:45.681Z,150613.66
2022-08-22T04:58:55.293Z,150561.16
2022-08-22T05:00:04.205Z,150546.47
2022-08-22T05:01:12.578Z,150585.59
2022-08-22T05:02:22.571Z,150578.25
2022-08-22T05:03:28.923Z,150572.16
2022-08-22T05:04:56.485Z,150612.38
2022-08-22T05:06:02.907Z,150589.25
2022-08-22T05:07:11.751Z,150625.84
2022-08-22T05:08:21.820Z,150627.06
2022-08-22T05:09:31.824Z,150638.00
2022-08-22T05:10:38.525Z,150636.78
2022-08-22T05:11:42.185Z,150620.97
2022-08-22T05:12:50.462Z,150666.06
2022-08-22T05:13:57.358Z,150678.25
2022-08-22T05:15:13.673Z,150707.53
2022-08-22T05:16:24.454Z,150718.56
2022-08-22T05:17:28.459Z,150767.38
2022-08-22T05:18:35.336Z,150740.47
2022-08-22T05:19:43.262Z,150762.50
2022-08-22T05:20:49.358Z,150735.59
2022-08-22T05:21:52.341Z,150724.66
2022-08-22T05:23:05.926Z,150790.56
2022-08-22T05:24:14.314Z,150771.03
2022-08-22T05:25:21.890Z,150785.72
2022-08-22T05:26:25.713Z,150771.03
2022-08-22T05:27:35.042Z,150817.44
2022-08-22T05:28:38.977Z,150741.69
2022-08-22T05:29:46.742Z,150805.19
2022-08-22T05:30:50.200Z,150772.25
2022-08-22T05:32:06.372Z,150868.66
2022-08-22T05:33:32.018Z,150900.41
2022-08-22T05:34:42.102Z,150882.13
2022-08-22T05:35:57.749Z,150905.28
2022-08-22T05:37:10.974Z,150910.19
2022-08-22T05:38:18.669Z,150897.97
2022-08-22T05:39:25.451Z,150934.63
2022-08-22T05:40:33.352Z,150937.06
2022-08-22T05:41:37.910Z,150968.78
2022-08-22T05:42:40.128Z,150939.50
2022-08-22T05:43:44.255Z,151000.53
2022-08-22T05:44:46.575Z,150993.22
2022-08-22T05:45:49.210Z,150995.66
2022-08-22T05:47:01.331Z,151057.94
2022-08-22T05:48:09.792Z,151088.50
2022-08-22T05:49:35.883Z,151100.69
2022-08-22T05:50:41.563Z,151060.38
2022-08-22T05:51:53.632Z,151127.56
2022-08-22T05:53:12.810Z,151155.66
2022-08-22T05:54:21.582Z,151138.53
2022-08-22T05:56:15.737Z,151247.28
2022-08-22T05:57:31.386Z,151268.06
2022-08-22T05:59:00.145Z,151277.84
2022-08-22T06:00:11.913Z,151325.47
2022-08-22T06:01:38.789Z,151369.50
2022-08-22T06:03:18.474Z,151415.94
2022-08-22T06:04:44.951Z,151423.28
2022-08-22T06:05:52.928Z,151404.91
2022-08-22T06:07:01.096Z,151360.91
2022-08-22T06:08:10.393Z,151420.81
2022-08-22T06:09:24.535Z,151403.69
2022-08-22T06:10:48.267Z,151419.59
2022-08-22T06:11:55.295Z,151291.28
2022-08-22T06:13:01.990Z,151303.47
2022-08-22T06:14:17.467Z,151389.00
2022-08-22T06:15:36.289Z,151408.56
2022-08-22T06:16:49.436Z,151396.31
2022-08-22T06:18:05.104Z,151401.22
2022-08-22T06:19:19.289Z,151332.78
2022-08-22T06:20:39.410Z,151332.78
2022-08-22T06:21:44.487Z,151270.50
2022-08-22T06:22:53.642Z,151286.41
2022-08-22T06:24:00.017Z,151279.06
2022-08-22T06:25:12.821Z,151281.50
2022-08-22T06:26:20.603Z,151259.50
2022-08-22T06:27:27.019Z,151265.59
2022-08-22T06:28:54.615Z,151266.81
2022-08-22T06:30:02.634Z,151296.16
2022-08-22T06:31:08.244Z,151266.81
2022-08-22T06:32:15.916Z,151313.28
2022-08-22T06:33:23.418Z,151337.72
2022-08-22T06:34:35.895Z,151401.22
2022-08-22T06:36:08.981Z,151397.56
2022-08-22T06:37:19.753Z,151488.03
2022-08-22T06:38:25.024Z,151533.25
2022-08-22T06:39:35.512Z,151552.81
2022-08-22T06:40:40.854Z,151580.97
2022-08-22T06:41:52.554Z,151616.41
2022-08-22T06:42:57.170Z,151585.84
2022-08-22T06:44:02.040Z,151708.13
2022-08-22T06:45:33.639Z,151907.53
2022-08-22T06:46:38.210Z,151859.78
2022-08-22T06:47:50.209Z,151883.06
2022-08-22T06:48:55.602Z,151890.41
2022-08-22T06:50:14.353Z,151941.78
2022-08-22T06:51:19.362Z,151856.09
2022-08-22T06:52:25.921Z,151832.91
2022-08-22T06:53:37.133Z,151883.06
2022-08-22T06:54:46.631Z,151912.44
2022-08-22T06:56:03.377Z,151889.19
2022-08-22T06:57:12.124Z,151853.66
2022-08-22T06:58:20.937Z,151868.38
2022-08-22T06:59:27.447Z,151823.09
2022-08-22T07:00:33.771Z,151809.66
2022-08-22T07:01:44.703Z,151826.75
2022-08-22T07:02:54.706Z,151816.97
2022-08-22T07:04:08.604Z,151780.31
2022-08-22T07:05:17.728Z,151765.66
2022-08-22T07:06:30.732Z,151752.16
2022-08-22T07:07:33.009Z,151621.31
2022-08-22T07:08:39.064Z,151661.63
2022-08-22T07:09:41.821Z,151639.66
2022-08-22T07:10:47.703Z,151708.13
2022-08-22T07:11:52.223Z,151738.72
2022-08-22T07:12:56.850Z,151804.78
2022-08-22T07:14:03.282Z,151792.50
2022-08-22T07:15:20.426Z,151861.00
2022-08-22T07:16:56.252Z,151824.31
2022-08-22T07:18:02.095Z,151916.09
2022-08-22T07:19:04.594Z,151913.66
2022-08-22T07:20:24.553Z,152050.69
2022-08-22T07:21:30.332Z,152027.44
2022-08-22T07:22:37.527Z,152002.97
2022-08-22T07:23:48.107Z,152060.47
2022-08-22T07:25:01.560Z,152126.56
2022-08-22T07:26:41.233Z,152176.78
2022-08-22T07:28:04.459Z,152228.22
2022-08-22T07:29:17.124Z,152137.59
2022-08-22T07:30:27.688Z,152182.91
2022-08-22T07:31:34.108Z,152170.69
2022-08-22T07:32:57.736Z,152260.03
2022-08-22T07:34:57.741Z,152191.47
2022-08-22T07:36:05.770Z,152193.94
2022-08-22T07:37:17.756Z,152203.72
2022-08-22T07:38:34.928Z,152300.47
2022-08-22T07:39:50.212Z,152283.25
2022-08-22T07:41:22.406Z,152365.34
2022-08-22T07:42:37.959Z,152426.59
2022-08-22T07:43:50.368Z,152474.38
2022-08-22T07:45:05.491Z,152417.97
2022-08-22T07:46:28.798Z,152583.38
2022-08-22T07:47:58.335Z,152429.03
2022-08-22T07:49:22.208Z,152465.81
2022-08-22T07:50:30.011Z,152487.81
2022-08-22T07:51:39.929Z,152392.31
2022-08-22T07:52:45.709Z,152406.97
2022-08-22T07:54:00.914Z,152531.94
2022-08-22T07:55:08.235Z,152568.66
2022-08-22T07:56:24.382Z,152664.25
2022-08-22T07:57:37.438Z,152683.81
2022-08-22T07:58:42.976Z,152707.16
2022-08-22T07:59:53.825Z,152713.28
2022-08-22T08:00:57.339Z,152751.25
2022-08-22T08:02:01.744Z,152850.56
2022-08-22T08:03:07.134Z,152882.41
2022-08-22T08:04:13.142Z,152908.16
2022-08-22T08:05:17.429Z,152801.50
2022-08-22T08:06:23.426Z,152857.94
2022-08-22T08:07:28.954Z,152897.16
2022-08-22T08:08:44.378Z,153008.72
2022-08-22T08:09:51.183Z,152979.28
2022-08-22T08:10:57.318Z,153049.16
2022-08-22T08:12:02.448Z,152968.25
2022-08-22T08:13:13.074Z,152941.25
2022-08-22T08:14:16.749Z,152834.59
2022-08-22T08:15:22.892Z,152791.72
2022-08-22T08:16:28.822Z,152823.59
2022-08-22T08:17:35.349Z,152834.59
2022-08-22T08:18:39.533Z,152848.09
2022-08-22T08:19:44.779Z,152886.09
2022-08-22T08:20:54.402Z,152933.91
2022-08-22T08:21:58.773Z,153050.38
2022-08-22T08:23:02.977Z,153039.34
2022-08-22T08:24:08.641Z,153269.94
2022-08-22T08:25:20.384Z,153429.44
2022-08-22T08:26:30.219Z,153522.75
2022-08-22T08:27:56.429Z,153672.47
2022-08-22T08:28:59.443Z,153711.78
2022-08-22T08:30:05.168Z,153584.13
2022-08-22T08:31:14.966Z,153629.53
2022-08-22T08:32:18.181Z,153746.13
2022-08-22T08:33:25.091Z,153817.41
2022-08-22T08:34:32.409Z,153907.00
2022-08-22T08:36:02.794Z,153931.59
2022-08-22T08:37:27.785Z,154096.19
2022-08-22T08:39:12.578Z,153841.94
2022-08-22T08:40:26.869Z,153846.88
2022-08-22T08:41:47.090Z,153844.38
2022-08-22T08:43:18.556Z,153922.97
2022-08-22T08:44:27.562Z,153860.34
2022-08-22T08:46:15.720Z,153783.00
2022-08-22T08:47:35.918Z,153765.78
2022-08-22T08:49:19.648Z,153741.22
2022-08-22T08:50:44.097Z,153584.13
2022-08-22T08:52:01.325Z,153506.78
2022-08-22T08:53:36.510Z,153542.34
2022-08-22T08:55:00.489Z,153537.44
2022-08-22T08:56:14.657Z,153341.13
2022-08-22T08:57:22.423Z,153390.22
2022-08-22T08:58:46.448Z,153402.44
2022-08-22T09:00:16.479Z,153331.28
2022-08-22T09:01:59.830Z,153279.75
2022-08-22T09:03:12.117Z,153293.25
2022-08-22T09:05:07.614Z,153314.09
2022-08-22T09:06:33.196Z,153301.84
2022-08-22T09:07:42.018Z,153442.91
2022-08-22T09:08:59.155Z,153498.19
2022-08-22T09:10:43.456Z,153485.94
2022-08-22T09:12:13.539Z,153544.78
2022-08-22T09:13:29.007Z,153408.59
2022-08-22T09:15:11.894Z,153309.19
2022-08-22T09:16:36.075Z,153203.69
2022-08-22T09:18:13.913Z,153290.81
2022-08-22T09:19:51.033Z,153476.09
2022-08-22T09:20:59.306Z,153574.25
2022-08-22T09:22:05.430Z,153515.38
2022-08-22T09:23:56.144Z,153679.81
2022-08-22T09:25:23.491Z,153385.31
2022-08-22T09:26:32.062Z,153279.75
2022-08-22T09:27:55.993Z,153347.25
2022-08-22T09:29:55.062Z,153327.59
2022-08-22T09:31:44.759Z,153175.47
2022-08-22T09:33:16.904Z,153230.72
2022-08-22T09:34:41.056Z,153333.72
2022-08-22T09:36:13.231Z,153485.94
2022-08-22T09:37:28.986Z,153369.34
2022-08-22T09:38:49.625Z,153396.31
2022-08-22T09:42:08.066Z,153376.69
2022-08-22T09:43:21.340Z,153319.03
2022-08-22T09:44:53.229Z,153419.66
2022-08-22T09:46:15.822Z,153482.25
2022-08-22T09:47:31.392Z,153512.91
2022-08-22T09:48:53.335Z,153456.44
2022-08-22T09:49:58.230Z,153493.28
2022-08-22T09:51:40.373Z,153652.84
2022-08-22T09:52:42.506Z,153505.53
2022-08-22T09:53:47.274Z,153542.34
2022-08-22T09:55:35.162Z,153679.81
2022-08-22T09:57:03.178Z,153355.88
2022-08-22T09:58:20.840Z,153393.88
2022-08-22T09:59:38.995Z,153341.13
2022-08-22T10:01:02.255Z,153368.13
2022-08-22T10:02:43.670Z,153346.03
2022-08-22T10:03:45.958Z,153287.16
2022-08-22T10:05:12.895Z,153268.72
2022-08-22T10:06:44.626Z,153245.41
2022-08-22T10:08:11.374Z,153269.94
2022-08-22T10:09:31.230Z,153296.94
2022-08-22T10:10:54.531Z,153309.19
2022-08-22T10:12:12.772Z,153363.22
2022-08-22T10:13:34.129Z,153257.72
2022-08-22T10:14:50.543Z,153294.50
2022-08-22T10:16:01.626Z,153203.69
2022-08-22T10:17:21.530Z,153166.91
2022-08-22T10:18:53.829Z,153230.72
2022-08-22T10:20:06.079Z,153177.94
2022-08-22T10:21:26.930Z,153240.50
2022-08-22T10:22:34.357Z,153171.81
2022-08-22T10:23:48.533Z,153149.72
2022-08-22T10:25:09.059Z,153098.25
2022-08-22T10:26:22.783Z,153162.00
2022-08-22T10:27:40.186Z,153191.44
2022-08-22T10:28:53.893Z,153098.25
2022-08-22T10:30:05.172Z,153085.97
2022-08-22T10:31:34.342Z,153116.63
2022-08-22T10:32:56.916Z,152989.13
2022-08-22T10:34:16.954Z,153083.47
2022-08-22T10:35:27.243Z,153137.47
2022-08-22T10:36:57.499Z,153105.59
2022-08-22T10:38:10.809Z,153130.13
2022-08-22T10:39:22.907Z,153132.56
2022-08-22T10:40:37.882Z,153220.94
2022-08-22T10:41:54.646Z,153142.38
2022-08-22T10:43:10.836Z,153238.06
2022-08-22T10:44:27.211Z,153242.97
2022-08-22T10:45:35.781Z,153230.72
2022-08-22T10:46:54.260Z,153295.72
2022-08-22T10:47:57.239Z,153186.53
2022-08-22T10:49:05.710Z,153319.03
2022-08-22T10:50:20.096Z,153414.72
2022-08-22T10:51:31.685Z,153412.25
2022-08-22T10:52:47.000Z,153478.53
2022-08-22T10:54:31.467Z,153407.34
2022-08-22T10:55:39.811Z,153384.09
2022-08-22T10:56:51.360Z,153385.31
2022-08-22T10:58:12.801Z,153362.00
2022-08-22T10:59:38.486Z,153566.91
2022-08-22T11:00:56.645Z,153638.09
2022-08-22T11:02:20.174Z,153672.47
2022-08-22T11:03:53.161Z,153559.53
2022-08-22T11:05:10.518Z,153574.25
2022-08-22T11:06:20.714Z,153510.44
2022-08-22T11:07:28.970Z,153571.78
2022-08-22T11:08:40.291Z,153601.28
2022-08-22T11:09:43.616Z,153494.53
2022-08-22T11:10:52.134Z,153581.69
2022-08-22T11:12:15.934Z,153454.00
2022-08-22T11:13:43.394Z,153569.34
2022-08-22T11:15:27.301Z,153616.03
2022-08-22T11:16:44.175Z,153584.13
2022-08-22T11:18:20.542Z,153620.94
2022-08-22T11:19:49.679Z,153667.56
2022-08-22T11:21:10.997Z,153699.50
2022-08-22T11:22:13.183Z,153655.31
2022-08-22T11:23:40.713Z,153754.75
2022-08-22T11:25:13.963Z,153695.78
2022-08-22T11:26:46.645Z,153693.34
2022-08-22T11:27:52.652Z,153704.41
2022-08-22T11:28:57.492Z,153780.53
2022-08-22T11:30:11.118Z,153770.69
2022-08-22T11:31:36.654Z,153596.41
2022-08-22T11:32:44.244Z,153685.97
2022-08-22T11:34:03.560Z,153763.34
2022-08-22T11:35:22.785Z,153673.69
2022-08-22T11:36:27.830Z,153683.53
2022-08-22T11:37:45.046Z,153706.88
2022-08-22T11:39:01.267Z,153728.97
2022-08-22T11:40:34.428Z,153758.44
2022-08-22T11:41:44.848Z,153771.91
2022-08-22T11:43:20.113Z,153802.59
2022-08-22T11:44:31.174Z,153774.38
2022-08-22T11:45:45.022Z,153839.47
2022-08-22T11:46:51.957Z,153775.59
2022-08-22T11:48:04.802Z,153731.44
2022-08-22T11:49:31.638Z,153759.66
2022-08-22T11:50:37.357Z,153694.56
2022-08-22T11:51:42.494Z,153779.28
2022-08-22T11:52:44.683Z,153755.97
2022-08-22T11:53:59.943Z,153770.69
2022-08-22T11:55:33.266Z,153854.22
2022-08-22T11:56:49.997Z,153826.00
2022-08-22T11:57:56.863Z,153862.81
2022-08-22T11:59:13.578Z,153855.44
2022-08-22T12:00:23.102Z,153855.44
2022-08-22T12:01:38.184Z,153824.75
2022-08-22T12:02:41.519Z,153775.59
2022-08-22T12:03:58.633Z,153800.16
2022-08-22T12:05:24.534Z,153802.59
2022-08-22T12:06:35.045Z,153764.56
2022-08-22T12:07:44.430Z,153977.00
2022-08-22T12:09:35.863Z,154049.53
2022-08-22T12:11:12.228Z,154160.09
2022-08-22T12:12:45.447Z,154167.44
2022-08-22T12:14:06.243Z,154232.56
2022-08-22T12:15:30.443Z,154198.16
2022-08-22T12:16:53.281Z,154195.72
2022-08-22T12:18:04.159Z,154219.06
2022-08-22T12:19:22.953Z,154139.16
2022-08-22T12:20:25.897Z,154152.69
2022-08-22T12:21:36.864Z,154284.22
2022-08-22T12:23:02.849Z,154425.53
2022-08-22T12:24:11.247Z,154456.25
2022-08-22T12:25:47.848Z,154364.03
2022-08-22T12:27:01.772Z,154271.91
2022-08-22T12:28:28.085Z,154087.59
2022-08-22T12:29:45.177Z,154146.56
2022-08-22T12:31:02.799Z,154184.66
2022-08-22T12:32:34.060Z,154081.47
2022-08-22T12:34:00.019Z,154042.13
2022-08-22T12:35:52.525Z,153927.88
2022-08-22T12:37:01.227Z,153942.63
2022-08-22T12:38:28.486Z,153947.59
2022-08-22T12:39:53.510Z,153924.19
2022-08-22T12:41:28.289Z,153979.50
2022-08-22T12:43:02.210Z,153924.19
2022-08-22T12:44:30.889Z,154050.75
2022-08-22T12:45:53.321Z,153942.63
2022-08-22T12:47:13.740Z,153984.41
2022-08-22T12:48:30.607Z,153790.34
2022-08-22T12:49:56.004Z,153755.97
2022-08-22T12:51:22.453Z,153708.09
2022-08-22T12:52:47.923Z,153850.56
2022-08-22T12:54:05.388Z,153883.69
2022-08-22T12:55:42.387Z,153883.69
2022-08-22T12:57:15.220Z,153839.47
2022-08-22T12:58:44.553Z,153656.53
2022-08-22T13:00:11.695Z,153726.53
2022-08-22T13:01:15.585Z,153722.84
2022-08-22T13:02:25.687Z,153726.53
2022-08-22T13:03:32.462Z,153628.28
2022-08-22T13:04:42.215Z,153598.84
2022-08-22T13:05:52.426Z,153623.41
2022-08-22T13:07:05.587Z,153607.41
2022-08-22T13:08:22.634Z,153677.34
2022-08-22T13:09:37.208Z,153544.78
2022-08-22T13:10:51.062Z,153571.78
2022-08-22T13:11:58.935Z,153581.69
2022-08-22T13:13:12.052Z,153527.66
2022-08-22T13:14:25.622Z,153562.00
2022-08-22T13:15:33.588Z,153523.97
2022-08-22T13:16:48.923Z,153498.19
2022-08-22T13:17:54.777Z,153533.78
2022-08-22T13:19:18.917Z,153574.25
2022-08-22T13:20:26.641Z,153461.38
2022-08-22T13:21:36.338Z,153434.34
2022-08-22T13:22:45.398Z,153439.25
2022-08-22T13:23:54.087Z,153466.28
2022-08-22T13:25:14.370Z,153476.09
2022-08-22T13:26:31.966Z,153434.34
2022-08-22T13:27:50.747Z,153422.09
2022-08-22T13:29:24.679Z,153429.44
2022-08-22T13:30:33.663Z,153260.16
2022-08-22T13:31:39.023Z,153174.25
2022-08-22T13:32:52.756Z,153104.38
2022-08-22T13:34:28.923Z,153142.38
2022-08-22T13:35:37.558Z,152953.53
2022-08-22T13:36:52.101Z,152973.16
2022-08-22T13:38:07.752Z,153029.56
2022-08-22T13:39:19.668Z,152943.69
2022-08-22T13:40:27.044Z,152979.28
2022-08-22T13:41:44.339Z,153000.13
2022-08-22T13:42:50.301Z,153012.38
2022-08-22T13:43:59.429Z,153066.34
2022-08-22T13:45:10.930Z,153049.16
2022-08-22T13:46:13.390Z,153034.47
2022-08-22T13:47:22.173Z,153082.25
2022-08-22T13:48:45.101Z,153076.13
2022-08-22T13:49:52.935Z,153182.81
2022-08-22T13:50:58.118Z,153162.00
2022-08-22T13:52:29.185Z,153332.50
2022-08-22T13:53:49.914Z,153424.56
2022-08-22T13:55:17.010Z,153468.75
2022-08-22T13:56:24.986Z,153566.91
2022-08-22T13:57:39.496Z,153624.63
2022-08-22T13:58:45.870Z,153586.59
2022-08-22T14:00:12.186Z,153733.88
2022-08-22T14:02:03.856Z,153769.47
2022-08-22T14:03:11.971Z,153662.66
2022-08-22T14:04:32.303Z,153589.03
2022-08-22T14:05:53.253Z,153679.81
2022-08-22T14:07:17.871Z,153525.19
2022-08-22T14:08:31.963Z,153505.53
2022-08-22T14:09:48.219Z,153506.78
2022-08-22T14:11:02.062Z,153527.66
2022-08-22T14:12:13.759Z,153516.63
2022-08-22T14:13:40.596Z,153552.19
2022-08-22T14:14:46.444Z,153462.63
2022-08-22T14:15:48.700Z,153413.47
2022-08-22T14:16:55.868Z,153457.66
2022-08-22T14:18:13.913Z,153476.09
2022-08-22T14:19:52.608Z,153543.56
2022-08-22T14:21:24.601Z,153531.31
2022-08-22T14:22:31.856Z,153482.25
2022-08-22T14:23:35.678Z,153498.19
2022-08-22T14:24:45.711Z,153560.78
2022-08-22T14:25:48.782Z,153539.91
2022-08-22T14:26:57.909Z,153613.53
2022-08-22T14:28:09.639Z,153673.69
2022-08-22T14:29:16.506Z,153591.50
2022-08-22T14:30:24.475Z,153493.28
2022-08-22T14:31:27.875Z,153483.50
2022-08-22T14:32:53.761Z,153571.78
2022-08-22T14:34:11.774Z,153468.75
2022-08-22T14:35:23.188Z,153391.44
2022-08-22T14:36:41.354Z,153338.63
2022-08-22T14:37:49.723Z,153293.25
2022-08-22T14:38:56.324Z,153333.72
2022-08-22T14:40:26.164Z,153430.69
2022-08-22T14:41:56.377Z,153446.59
2022-08-22T14:43:16.382Z,153460.16